Terminal Aerodrome Forecast
Issued by NWS

Home | Current Version | Previous Version | Text Only | Print | Product List | Glossary On
Versions: 1 2 3 4 5 6 7 8 9 10 11 12 13 14 15 16 17 18 19 20 21 22 23 24 25 26 27 28 29 30 31 32 33 34 35 36 37 38 39 40
000
FTUS45 KPSR 302055 AAB
TAFPHX
TAF AMD
KPHX 302055Z 3021/0118 28012G21KT P6SM FEW120 FEW250
     FM302200 28012KT P6SM FEW080 SCT120 BKN200
     FM010400 11010KT P6SM VCTS BKN090CB OVC150
     FM010800 12008KT P6SM BKN120 BKN200=

USA.gov is the U.S. government's official web portal to all federal, state and local government web resources and services.